Time;durP1;ratioP1;P1;durP2;ratioP2;P2;SDS_P1;SDS_P2;PMS_P1;PMS_P2;Temp;Humidity;BMP_temperature;BMP_pressure;BME280_temperature;BME280_humidity;BME280_pressure;Samples;Min_cycle;Max_cycle;Signal;HPM_P1;HPM_P2
2024/03/06 00:00:07;;;;;;;16.50;14.55;;;8.70;99.90;;;;;;4921911;29;20056;-91
2024/03/06 00:02:35;;;;;;;17.80;14.10;;;8.70;99.90;;;;;;4919111;29;20044;-92
2024/03/06 00:05:01;;;;;;;19.45;14.15;;;8.60;99.90;;;;;;4918506;29;20028;-92
2024/03/06 00:07:27;;;;;;;20.83;15.88;;;8.50;99.90;;;;;;4918931;29;20450;-92
2024/03/06 00:09:53;;;;;;;20.55;15.70;;;8.50;99.90;;;;;;4918926;29;20032;-92
2024/03/06 00:12:18;;;;;;;17.77;14.73;;;8.50;99.90;;;;;;4920128;29;20028;-91
2024/03/06 00:14:44;;;;;;;18.38;16.08;;;8.50;99.90;;;;;;4922479;29;20100;-92
2024/03/06 00:17:09;;;;;;;26.92;16.33;;;8.50;99.90;;;;;;4921599;29;20028;-92
2024/03/06 00:19:35;;;;;;;19.95;15.48;;;8.50;99.90;;;;;;4919542;29;20032;-92
2024/03/06 00:22:01;;;;;;;23.50;16.92;;;8.50;99.90;;;;;;4919048;29;20027;-92
2024/03/06 00:24:26;;;;;;;27.08;16.75;;;8.40;99.90;;;;;;4919328;29;20043;-92
2024/03/06 00:26:52;;;;;;;19.27;16.23;;;8.50;99.90;;;;;;4918934;29;20056;-92
2024/03/06 00:29:18;;;;;;;21.77;17.40;;;8.50;99.90;;;;;;4919383;29;20020;-92
2024/03/06 00:31:44;;;;;;;25.95;17.58;;;8.40;99.90;;;;;;4918992;29;20080;-91
2024/03/06 00:34:13;;;;;;;22.35;17.33;;;8.40;99.90;;;;;;4919392;29;20028;-91
2024/03/06 00:36:39;;;;;;;20.88;16.27;;;8.40;99.90;;;;;;4916748;29;20038;-92
2024/03/06 00:39:05;;;;;;;19.85;16.77;;;8.40;99.90;;;;;;4918856;29;20059;-92
2024/03/06 00:41:31;;;;;;;22.92;17.63;;;8.40;99.90;;;;;;4922827;29;20028;-92
2024/03/06 00:43:57;;;;;;;22.25;17.42;;;8.80;99.90;;;;;;4922579;29;20024;-91
2024/03/06 00:46:23;;;;;;;24.00;17.75;;;8.50;99.90;;;;;;4921467;29;20025;-92
2024/03/06 00:48:48;;;;;;;26.65;19.10;;;8.40;99.90;;;;;;4923490;29;20051;-92
2024/03/06 00:51:14;;;;;;;25.60;18.70;;;8.60;99.90;;;;;;4917525;29;20079;-91
2024/03/06 00:53:39;;;;;;;20.98;17.90;;;8.40;99.90;;;;;;4917263;29;20499;-91
2024/03/06 00:56:06;;;;;;;26.00;19.15;;;8.50;99.90;;;;;;4917556;29;20484;-92
2024/03/06 00:58:32;;;;;;;27.92;18.52;;;8.50;99.90;;;;;;4917137;29;20032;-92
2024/03/06 01:00:58;;;;;;;24.08;18.55;;;8.50;99.90;;;;;;4915890;29;20143;-91
2024/03/06 01:03:24;;;;;;;24.42;18.75;;;8.40;99.90;;;;;;4917560;29;20435;-91
2024/03/06 01:05:52;;;;;;;28.50;19.83;;;8.40;99.90;;;;;;4917419;29;20067;-91
2024/03/06 01:08:17;;;;;;;28.90;20.70;;;8.50;99.90;;;;;;4916609;29;20032;-92
2024/03/06 01:10:43;;;;;;;32.08;20.58;;;8.50;99.90;;;;;;4919638;29;20064;-91
2024/03/06 01:13:10;;;;;;;26.80;19.55;;;8.40;99.90;;;;;;4923023;29;20036;-92
2024/03/06 01:15:36;;;;;;;25.73;20.08;;;8.40;99.90;;;;;;4930968;29;20076;-91
2024/03/06 01:18:03;;;;;;;26.02;19.98;;;8.40;99.90;;;;;;4917245;29;20485;-92
2024/03/06 01:20:29;;;;;;;29.50;20.45;;;8.40;99.90;;;;;;4917638;29;20031;-92
2024/03/06 01:22:54;;;;;;;29.45;20.17;;;8.40;99.90;;;;;;4917402;29;20456;-92
2024/03/06 01:25:28;;;;;;;26.27;19.92;;;8.30;99.90;;;;;;4917808;29;20063;-94
2024/03/06 01:27:54;;;;;;;24.58;19.50;;;7.30;99.90;;;;;;4914788;29;20029;-92
2024/03/06 01:30:19;;;;;;;24.88;20.15;;;8.30;99.90;;;;;;4917254;29;20099;-91
2024/03/06 01:32:46;;;;;;;28.42;20.45;;;8.40;99.90;;;;;;4916261;29;20026;-92
2024/03/06 01:35:11;;;;;;;26.85;18.85;;;8.30;99.90;;;;;;4913082;29;20068;-92
2024/03/06 01:37:37;;;;;;;27.35;20.27;;;8.30;99.90;;;;;;4915946;29;20066;-92
2024/03/06 01:40:04;;;;;;;26.92;20.38;;;8.40;99.90;;;;;;4918291;29;20036;-92
2024/03/06 01:42:30;;;;;;;26.25;19.95;;;8.40;99.90;;;;;;4921738;29;20556;-93
2024/03/06 01:44:56;;;;;;;23.42;18.95;;;8.30;99.90;;;;;;4917597;29;20032;-92
2024/03/06 01:47:21;;;;;;;25.80;19.75;;;8.40;99.90;;;;;;4916158;29;20078;-92
2024/03/06 01:49:48;;;;;;;26.48;20.25;;;8.40;99.90;;;;;;4916575;29;20083;-92
2024/03/06 01:52:16;;;;;;;26.67;19.80;;;8.40;99.90;;;;;;4918067;29;20115;-92
2024/03/06 01:54:42;;;;;;;26.17;20.25;;;8.30;99.90;;;;;;4919567;29;20063;-92
2024/03/06 01:57:09;;;;;;;26.90;20.33;;;8.30;99.90;;;;;;4916776;29;20036;-91
2024/03/06 01:59:35;;;;;;;25.55;19.83;;;8.30;99.90;;;;;;4916131;29;20032;-91
2024/03/06 02:02:01;;;;;;;26.80;20.58;;;8.30;99.90;;;;;;4916404;29;20036;-91
2024/03/06 02:04:28;;;;;;;28.48;20.45;;;8.30;99.90;;;;;;4917124;29;20033;-92
2024/03/06 02:06:54;;;;;;;25.65;20.40;;;8.30;99.90;;;;;;4916878;29;20121;-91
2024/03/06 02:09:20;;;;;;;25.60;20.90;;;8.30;99.90;;;;;;4913386;29;20064;-91
2024/03/06 02:11:46;;;;;;;28.13;21.63;;;8.30;99.90;;;;;;4916057;29;20029;-91
2024/03/06 02:14:12;;;;;;;28.90;20.63;;;8.40;99.90;;;;;;4918352;29;20505;-92
2024/03/06 02:16:39;;;;;;;27.55;21.45;;;8.40;99.90;;;;;;4916223;29;20035;-91
2024/03/06 02:19:04;;;;;;;32.65;21.77;;;8.40;99.90;;;;;;4915402;29;20036;-92
2024/03/06 02:21:30;;;;;;;33.78;22.02;;;8.40;99.90;;;;;;4916862;29;20060;-92
2024/03/06 02:23:56;;;;;;;32.03;22.25;;;8.40;99.90;;;;;;4919238;29;20079;-92
2024/03/06 02:26:22;;;;;;;27.20;21.88;;;8.40;99.90;;;;;;4920262;29;20123;-92
2024/03/06 02:28:52;;;;;;;27.17;20.80;;;8.40;99.90;;;;;;4919372;29;20036;-92
2024/03/06 02:31:19;;;;;;;30.80;23.25;;;8.30;99.90;;;;;;4919877;29;20056;-93
2024/03/06 02:33:48;;;;;;;34.25;22.55;;;8.20;99.90;;;;;;4920705;29;20024;-92
2024/03/06 02:36:14;;;;;;;34.63;23.95;;;8.20;99.90;;;;;;4916344;29;20040;-92
2024/03/06 02:38:40;;;;;;;33.58;22.98;;;8.20;99.90;;;;;;4921152;29;20056;-91
2024/03/06 02:41:06;;;;;;;33.85;23.13;;;8.30;99.90;;;;;;4922587;29;20029;-90
2024/03/06 02:43:33;;;;;;;31.08;23.15;;;8.20;99.90;;;;;;4922342;29;20040;-91
2024/03/06 02:45:59;;;;;;;36.60;23.52;;;8.20;99.90;;;;;;4922621;29;20031;-91
2024/03/06 02:48:24;;;;;;;34.28;24.00;;;8.10;99.90;;;;;;4923635;29;20028;-91
2024/03/06 02:50:50;;;;;;;37.30;25.27;;;8.10;99.90;;;;;;4919612;29;20056;-91
2024/03/06 02:53:15;;;;;;;32.85;23.52;;;8.10;99.90;;;;;;4913764;29;20549;-92
2024/03/06 02:55:41;;;;;;;38.75;25.30;;;8.10;99.90;;;;;;4923061;29;20044;-92
2024/03/06 02:58:07;;;;;;;32.45;24.15;;;8.10;99.90;;;;;;4917831;29;20064;-92
2024/03/06 03:00:32;;;;;;;33.53;23.52;;;8.10;99.90;;;;;;4925188;29;20054;-92
2024/03/06 03:02:58;;;;;;;33.80;23.58;;;8.00;99.90;;;;;;4934654;29;20362;-92
2024/03/06 03:05:23;;;;;;;36.08;23.65;;;8.00;99.90;;;;;;4925026;29;20036;-91
2024/03/06 03:07:49;;;;;;;33.40;23.85;;;8.00;99.90;;;;;;4926574;29;20172;-90
2024/03/06 03:10:15;;;;;;;34.50;24.02;;;8.00;99.90;;;;;;4925582;29;20028;-91
2024/03/06 03:12:41;;;;;;;35.30;24.38;;;8.00;99.90;;;;;;4926849;29;20028;-91
2024/03/06 03:15:07;;;;;;;38.25;23.13;;;8.00;99.90;;;;;;4925569;29;20108;-91
2024/03/06 03:17:36;;;;;;;34.17;24.65;;;8.00;99.90;;;;;;4921267;29;20036;-92
2024/03/06 03:20:10;;;;;;;31.70;23.70;;;8.10;99.90;;;;;;4919846;29;20024;-93
2024/03/06 03:22:44;;;;;;;38.38;23.42;;;8.10;99.90;;;;;;4919642;29;20032;-91
2024/03/06 03:25:11;;;;;;;35.35;23.73;;;8.10;99.90;;;;;;4913347;29;20524;-92
2024/03/06 03:27:38;;;;;;;36.25;23.10;;;8.00;99.90;;;;;;4920104;29;20020;-92
2024/03/06 03:30:07;;;;;;;34.75;22.52;;;8.00;99.90;;;;;;4924733;29;20036;-91
2024/03/06 03:32:32;;;;;;;32.90;23.48;;;8.00;99.90;;;;;;4918055;29;20098;-91
2024/03/06 03:34:58;;;;;;;33.25;24.27;;;7.90;99.90;;;;;;4918285;29;20036;-92
2024/03/06 03:37:23;;;;;;;35.60;24.65;;;7.90;99.90;;;;;;4919409;29;20119;-91
2024/03/06 03:39:49;;;;;;;35.03;23.70;;;7.90;99.90;;;;;;4920782;29;20020;-91
2024/03/06 03:42:14;;;;;;;33.40;22.80;;;7.80;99.90;;;;;;4922563;29;20043;-92
2024/03/06 03:44:40;;;;;;;39.25;22.98;;;7.80;99.90;;;;;;4921473;29;20024;-91
2024/03/06 03:47:06;;;;;;;33.05;23.13;;;7.80;99.90;;;;;;4921337;29;20103;-93
2024/03/06 03:49:31;;;;;;;36.50;23.38;;;7.80;99.90;;;;;;4920980;29;20059;-91
2024/03/06 03:51:57;;;;;;;32.08;21.98;;;7.80;99.90;;;;;;4919536;29;20107;-92
2024/03/06 03:54:22;;;;;;;32.28;22.13;;;7.70;99.90;;;;;;4918413;29;20043;-92
2024/03/06 03:56:48;;;;;;;27.85;21.92;;;7.70;99.90;;;;;;4918687;29;20373;-92
2024/03/06 03:59:14;;;;;;;30.30;22.55;;;7.70;99.90;;;;;;4918580;29;20076;-92
2024/03/06 04:01:39;;;;;;;32.10;21.75;;;7.60;99.90;;;;;;4922730;29;20071;-93
2024/03/06 04:04:06;;;;;;;31.67;21.45;;;7.60;99.90;;;;;;4934566;29;20025;-92
2024/03/06 04:06:32;;;;;;;33.83;22.38;;;7.60;99.90;;;;;;4908006;29;20035;-91
2024/03/06 04:08:58;;;;;;;32.33;22.13;;;7.50;99.90;;;;;;4930170;29;20405;-91
2024/03/06 04:11:23;;;;;;;33.45;22.58;;;7.50;99.90;;;;;;4924980;29;20019;-92
2024/03/06 04:13:49;;;;;;;31.05;22.05;;;7.50;99.90;;;;;;4922062;29;20095;-91
2024/03/06 04:16:18;;;;;;;27.60;21.30;;;7.60;99.90;;;;;;4918897;29;20051;-92
2024/03/06 04:18:45;;;;;;;29.80;20.85;;;7.50;99.90;;;;;;4923685;29;20441;-92
2024/03/06 04:21:10;;;;;;;32.17;21.30;;;7.50;99.90;;;;;;4920817;29;20035;-91
2024/03/06 04:23:37;;;;;;;32.72;21.35;;;7.50;99.90;;;;;;4919797;29;20032;-92
2024/03/06 04:26:03;;;;;;;36.25;21.67;;;7.60;99.90;;;;;;4918319;29;20107;-92
2024/03/06 04:28:29;;;;;;;31.02;21.13;;;7.60;99.90;;;;;;4918179;29;20031;-92
2024/03/06 04:30:55;;;;;;;31.83;22.10;;;7.50;99.90;;;;;;4918005;29;20032;-91
2024/03/06 04:33:20;;;;;;;30.77;21.63;;;7.50;99.90;;;;;;4917958;29;20020;-91
2024/03/06 04:35:46;;;;;;;30.63;21.45;;;7.50;99.90;;;;;;4919045;29;20044;-91
2024/03/06 04:38:11;;;;;;;31.70;20.42;;;7.50;99.90;;;;;;4921635;29;20032;-92
2024/03/06 04:40:37;;;;;;;27.40;20.13;;;7.50;99.90;;;;;;4918674;29;20032;-92
2024/03/06 04:43:03;;;;;;;30.63;19.50;;;7.50;99.90;;;;;;4917940;29;20095;-91
2024/03/06 04:45:29;;;;;;;27.02;19.05;;;7.40;99.90;;;;;;4918435;29;20028;-91
2024/03/06 04:47:55;;;;;;;26.15;18.65;;;7.30;99.90;;;;;;4918984;29;20055;-92
2024/03/06 04:50:21;;;;;;;25.17;18.73;;;7.20;99.90;;;;;;4922228;29;20036;-91
2024/03/06 04:52:46;;;;;;;27.42;19.10;;;7.20;99.90;;;;;;4923889;29;20107;-91
2024/03/06 04:55:14;;;;;;;23.77;18.38;;;7.10;99.90;;;;;;4918062;29;20119;-92
2024/03/06 04:57:42;;;;;;;20.40;17.17;;;7.10;99.90;;;;;;4914629;29;20036;-90
2024/03/06 05:00:08;;;;;;;24.15;18.70;;;7.10;99.90;;;;;;4913007;29;20052;-91
2024/03/06 05:02:35;;;;;;;29.30;19.83;;;7.00;99.90;;;;;;4922395;29;20036;-91
2024/03/06 05:05:02;;;;;;;25.15;18.92;;;7.10;99.90;;;;;;4934122;29;20031;-91
2024/03/06 05:07:31;;;;;;;23.52;18.85;;;7.00;99.90;;;;;;4920390;29;20091;-92
2024/03/06 05:09:58;;;;;;;21.33;17.52;;;7.00;99.90;;;;;;4917329;29;20024;-89
2024/03/06 05:12:24;;;;;;;25.60;19.92;;;7.80;99.90;;;;;;4918115;29;20028;-91
2024/03/06 05:14:54;;;;;;;26.20;19.40;;;6.90;99.90;;;;;;4922772;29;20036;-91
2024/03/06 05:17:20;;;;;;;23.90;18.70;;;6.80;99.90;;;;;;4911198;29;20036;-91
2024/03/06 05:19:47;;;;;;;22.15;18.40;;;6.80;99.90;;;;;;4918349;29;20084;-91
2024/03/06 05:22:14;;;;;;;24.02;19.00;;;6.80;99.90;;;;;;4922263;29;20107;-91
2024/03/06 05:24:40;;;;;;;24.23;18.77;;;6.80;99.90;;;;;;4919333;29;20028;-91
2024/03/06 05:27:05;;;;;;;24.90;18.77;;;6.90;99.90;;;;;;4918671;29;20032;-91
2024/03/06 05:29:31;;;;;;;25.65;19.15;;;6.90;99.90;;;;;;4916820;29;20028;-89
2024/03/06 05:31:57;;;;;;;25.55;19.00;;;6.90;99.90;;;;;;4918330;29;20035;-92
2024/03/06 05:34:22;;;;;;;24.92;19.05;;;7.50;99.90;;;;;;4918616;29;20036;-91
2024/03/06 05:36:48;;;;;;;24.55;19.20;;;7.10;99.90;;;;;;4919582;29;20036;-91
2024/03/06 05:39:14;;;;;;;26.45;19.40;;;7.20;99.90;;;;;;4922863;29;20060;-91
2024/03/06 05:41:41;;;;;;;27.40;19.80;;;7.20;99.90;;;;;;4909025;29;20088;-92
2024/03/06 05:44:06;;;;;;;24.15;18.70;;;7.10;99.90;;;;;;4917721;29;20038;-92
2024/03/06 05:46:32;;;;;;;23.80;18.67;;;7.10;99.90;;;;;;4917823;29;20028;-91
2024/03/06 05:48:58;;;;;;;24.40;18.38;;;7.10;99.90;;;;;;4920684;29;20032;-91
2024/03/06 05:51:23;;;;;;;28.20;19.95;;;7.00;99.90;;;;;;4918632;29;20115;-92
2024/03/06 05:53:49;;;;;;;26.92;20.55;;;7.00;99.90;;;;;;4919331;29;20042;-91
2024/03/06 05:56:14;;;;;;;22.52;18.75;;;7.00;99.90;;;;;;4918279;29;20051;-91
2024/03/06 05:58:40;;;;;;;24.90;19.60;;;7.00;99.90;;;;;;4925242;29;20031;-91
2024/03/06 06:01:06;;;;;;;27.35;20.83;;;7.00;99.90;;;;;;4922338;29;20432;-93
2024/03/06 06:03:31;;;;;;;28.60;20.40;;;6.80;99.90;;;;;;4920865;29;20043;-92
2024/03/06 06:05:58;;;;;;;27.90;21.10;;;6.80;99.90;;;;;;4928728;29;20035;-89
2024/03/06 06:08:24;;;;;;;31.30;21.00;;;6.80;99.90;;;;;;4924281;29;20042;-90
2024/03/06 06:10:51;;;;;;;24.80;19.30;;;6.80;99.90;;;;;;4908822;29;20103;-92
2024/03/06 06:13:17;;;;;;;26.83;19.65;;;6.90;99.90;;;;;;4919697;29;20070;-91
2024/03/06 06:15:43;;;;;;;24.02;19.58;;;6.90;99.90;;;;;;4919764;29;20064;-91
2024/03/06 06:18:08;;;;;;;28.83;20.70;;;7.10;99.90;;;;;;4904388;29;20056;-90
2024/03/06 06:20:34;;;;;;;23.30;18.63;;;7.00;99.90;;;;;;4915460;29;20511;-91
2024/03/06 06:23:00;;;;;;;25.05;19.88;;;7.00;99.90;;;;;;4914264;29;20043;-89
2024/03/06 06:25:25;;;;;;;22.83;18.67;;;7.00;99.90;;;;;;4907547;29;20036;-90
2024/03/06 06:27:51;;;;;;;28.67;19.48;;;7.00;99.90;;;;;;4917350;29;20558;-90
2024/03/06 06:30:17;;;;;;;26.55;18.77;;;7.10;99.90;;;;;;4920152;29;20539;-90
2024/03/06 06:32:43;;;;;;;24.75;19.52;;;7.00;99.90;;;;;;4919273;29;20723;-90
2024/03/06 06:35:09;;;;;;;25.00;19.35;;;7.10;99.90;;;;;;4916416;29;20040;-90
2024/03/06 06:37:35;;;;;;;22.27;18.15;;;7.10;99.90;;;;;;4920131;29;20059;-90
2024/03/06 06:40:06;;;;;;;23.65;19.20;;;7.10;99.90;;;;;;4919123;29;20146;-90
2024/03/06 06:42:33;;;;;;;24.58;18.27;;;7.20;99.90;;;;;;4922059;29;20028;-90
2024/03/06 06:44:59;;;;;;;27.20;19.55;;;7.20;99.90;;;;;;4916210;29;20109;-89
2024/03/06 06:47:24;;;;;;;25.77;19.38;;;7.20;99.90;;;;;;4921609;29;20028;-90
2024/03/06 06:49:50;;;;;;;30.83;20.58;;;7.20;99.90;;;;;;4921238;29;20052;-89
2024/03/06 06:52:16;;;;;;;23.55;18.77;;;7.20;99.90;;;;;;4924200;29;20032;-91
2024/03/06 06:54:41;;;;;;;31.42;20.70;;;7.20;99.90;;;;;;4918127;29;20036;-91
2024/03/06 06:57:08;;;;;;;22.00;18.48;;;7.20;99.90;;;;;;4919746;29;20060;-89
2024/03/06 06:59:34;;;;;;;24.73;19.58;;;7.20;99.90;;;;;;4918292;29;20083;-92
2024/03/06 07:02:00;;;;;;;24.20;19.38;;;7.30;99.90;;;;;;4918435;29;20039;-90
2024/03/06 07:04:26;;;;;;;24.77;20.13;;;7.30;99.90;;;;;;4921275;29;20036;-91
2024/03/06 07:06:51;;;;;;;21.90;18.45;;;7.40;99.90;;;;;;4925039;29;20092;-90
2024/03/06 07:09:18;;;;;;;24.50;19.65;;;7.40;99.90;;;;;;4926805;29;20020;-91
2024/03/06 07:11:44;;;;;;;22.80;18.75;;;7.50;99.90;;;;;;4919416;29;20119;-90
2024/03/06 07:14:12;;;;;;;19.83;17.27;;;7.50;99.90;;;;;;4920065;29;20031;-90
2024/03/06 07:16:46;;;;;;;21.58;18.42;;;7.50;99.90;;;;;;4918734;29;20044;-90
2024/03/06 07:19:12;;;;;;;23.60;19.58;;;7.60;99.90;;;;;;4925806;29;20043;-91
2024/03/06 07:21:39;;;;;;;25.45;19.40;;;7.60;99.90;;;;;;4924870;29;20039;-91
2024/03/06 07:24:05;;;;;;;25.10;19.33;;;7.60;99.90;;;;;;4925410;29;20056;-90
2024/03/06 07:26:34;;;;;;;29.85;19.70;;;7.70;99.90;;;;;;4920110;29;20048;-91
2024/03/06 07:29:00;;;;;;;28.08;20.65;;;7.70;99.90;;;;;;4917127;29;20021;-91
2024/03/06 07:31:26;;;;;;;25.40;20.40;;;7.70;99.90;;;;;;4902917;29;20538;-92
2024/03/06 07:33:52;;;;;;;26.70;20.63;;;7.70;99.90;;;;;;4901414;29;20021;-91
2024/03/06 07:36:18;;;;;;;27.90;19.20;;;7.70;99.90;;;;;;4901363;29;20040;-90
2024/03/06 07:38:44;;;;;;;23.05;19.10;;;7.70;99.90;;;;;;4900521;29;20488;-91
2024/03/06 07:41:10;;;;;;;22.17;19.15;;;7.70;99.90;;;;;;4900646;29;20063;-90
2024/03/06 07:43:38;;;;;;;28.08;20.58;;;7.70;99.90;;;;;;4903743;29;20057;-90
2024/03/06 07:46:10;;;;;;;27.30;20.35;;;7.80;99.90;;;;;;4917919;29;20048;-90
2024/03/06 07:48:41;;;;;;;29.02;20.63;;;7.80;99.90;;;;;;4918209;29;20032;-91
2024/03/06 07:51:07;;;;;;;27.42;19.85;;;7.90;99.90;;;;;;4916125;29;20036;-91
2024/03/06 07:53:33;;;;;;;27.95;21.00;;;7.90;99.90;;;;;;4918580;29;20032;-91
2024/03/06 07:55:58;;;;;;;27.95;21.17;;;7.90;99.90;;;;;;4917958;29;20075;-90
2024/03/06 07:58:24;;;;;;;29.50;21.75;;;7.90;99.90;;;;;;4918712;29;20052;-92
2024/03/06 08:00:49;;;;;;;27.25;21.27;;;8.00;99.90;;;;;;4913365;29;20386;-91
2024/03/06 08:03:15;;;;;;;26.20;21.52;;;8.00;99.90;;;;;;4915216;29;20476;-91
2024/03/06 08:05:41;;;;;;;27.15;21.33;;;8.00;99.90;;;;;;4919812;29;20028;-91
2024/03/06 08:08:06;;;;;;;31.75;22.73;;;8.00;99.90;;;;;;4918471;29;20047;-92
2024/03/06 08:10:33;;;;;;;32.30;23.17;;;8.10;99.90;;;;;;4906092;29;20032;-92
2024/03/06 08:12:59;;;;;;;34.40;24.80;;;8.10;99.90;;;;;;4918993;29;20050;-91
2024/03/06 08:15:24;;;;;;;35.20;25.40;;;8.20;99.90;;;;;;4920152;29;20241;-92
2024/03/06 08:17:52;;;;;;;32.20;24.05;;;8.40;99.90;;;;;;4922200;29;20488;-90
2024/03/06 08:20:18;;;;;;;35.20;23.35;;;8.40;99.90;;;;;;4919994;29;20122;-92
2024/03/06 08:22:43;;;;;;;31.77;24.30;;;8.40;99.90;;;;;;4929582;29;20449;-92
2024/03/06 08:25:11;;;;;;;31.30;22.83;;;8.50;99.90;;;;;;4915587;29;20076;-92
2024/03/06 08:27:38;;;;;;;26.20;22.60;;;8.60;99.90;;;;;;4919109;29;20032;-92
2024/03/06 08:30:05;;;;;;;31.65;22.88;;;8.60;99.90;;;;;;4919621;29;20036;-93
2024/03/06 08:32:33;;;;;;;26.02;21.95;;;8.50;99.90;;;;;;4912535;29;20040;-92
2024/03/06 08:34:59;;;;;;;28.15;23.38;;;8.60;99.90;;;;;;4913416;29;20046;-89
2024/03/06 08:37:25;;;;;;;26.25;22.58;;;8.70;99.90;;;;;;4917816;29;20032;-89
2024/03/06 08:39:50;;;;;;;28.58;22.55;;;8.70;99.90;;;;;;4917249;29;20032;-91
2024/03/06 08:42:18;;;;;;;30.23;23.00;;;8.70;99.90;;;;;;4917443;29;20043;-90
2024/03/06 08:44:44;;;;;;;31.77;22.10;;;8.80;99.90;;;;;;4905737;29;20489;-89
2024/03/06 08:47:10;;;;;;;28.80;22.63;;;8.80;99.90;;;;;;4917465;29;20032;-92
2024/03/06 08:49:35;;;;;;;28.60;22.10;;;8.80;99.90;;;;;;4908258;29;20465;-92
2024/03/06 08:52:01;;;;;;;26.23;21.20;;;8.80;99.90;;;;;;4914244;29;20473;-91
2024/03/06 08:54:26;;;;;;;32.53;22.00;;;8.80;99.90;;;;;;4917718;29;20483;-92
2024/03/06 08:56:57;;;;;;;26.52;21.25;;;8.70;99.90;;;;;;4907028;29;20493;-92
2024/03/06 08:59:24;;;;;;;31.50;22.55;;;8.70;99.90;;;;;;4906491;29;20476;-91
2024/03/06 09:01:53;;;;;;;27.85;22.25;;;8.60;99.90;;;;;;4918085;29;20536;-93
2024/03/06 09:04:19;;;;;;;32.33;24.33;;;8.60;99.90;;;;;;4918934;29;20036;-91
2024/03/06 09:06:45;;;;;;;30.38;23.42;;;8.70;99.90;;;;;;4904124;29;20126;-90
2024/03/06 09:09:10;;;;;;;26.92;22.02;;;8.70;99.90;;;;;;4900889;29;20024;-87
2024/03/06 09:11:36;;;;;;;31.25;22.65;;;8.80;99.90;;;;;;4914073;29;20082;-90
2024/03/06 09:14:01;;;;;;;31.73;22.30;;;8.80;99.90;;;;;;4917898;29;20039;-89
2024/03/06 09:16:27;;;;;;;29.75;23.17;;;8.80;99.90;;;;;;4917197;29;20040;-91
2024/03/06 09:18:53;;;;;;;29.27;22.25;;;8.90;99.90;;;;;;4917387;29;20024;-90
2024/03/06 09:21:19;;;;;;;30.90;22.27;;;8.90;99.90;;;;;;4917201;29;20481;-92
2024/03/06 09:23:45;;;;;;;29.25;23.23;;;8.90;99.90;;;;;;4916450;29;20156;-91
2024/03/06 09:26:10;;;;;;;29.73;22.88;;;8.90;99.90;;;;;;4917398;29;20059;-93
2024/03/06 09:28:36;;;;;;;31.98;23.85;;;8.90;99.90;;;;;;4918140;29;20103;-92
2024/03/06 09:31:02;;;;;;;34.30;22.85;;;8.80;99.90;;;;;;4918117;29;20031;-87
2024/03/06 09:33:27;;;;;;;34.03;23.42;;;8.90;99.90;;;;;;4910384;29;20115;-89
2024/03/06 09:35:53;;;;;;;35.83;23.20;;;8.90;99.90;;;;;;4915385;29;20440;-86
2024/03/06 09:38:18;;;;;;;31.77;23.38;;;8.90;99.90;;;;;;4916467;29;20123;-91
2024/03/06 09:40:44;;;;;;;34.70;22.85;;;8.90;99.90;;;;;;4928351;29;20032;-92
2024/03/06 09:43:10;;;;;;;34.72;23.75;;;9.00;99.90;;;;;;4933506;29;20031;-93
2024/03/06 09:45:36;;;;;;;36.95;22.77;;;9.00;99.90;;;;;;4930285;29;20487;-92
2024/03/06 09:48:01;;;;;;;29.85;22.90;;;9.00;99.90;;;;;;4931606;29;20028;-92
2024/03/06 09:50:34;;;;;;;26.15;20.58;;;9.00;99.90;;;;;;4923315;29;20417;-91
2024/03/06 09:53:01;;;;;;;32.72;21.45;;;9.10;99.90;;;;;;4919199;29;20035;-92
2024/03/06 09:55:27;;;;;;;32.40;22.75;;;9.10;99.90;;;;;;4920290;29;20040;-93
2024/03/06 09:57:52;;;;;;;32.63;22.27;;;9.10;99.90;;;;;;4919687;29;20024;-92
2024/03/06 10:00:20;;;;;;;28.55;22.08;;;9.20;99.90;;;;;;4910114;29;20112;-93
2024/03/06 10:02:57;;;;;;;29.95;21.77;;;9.20;99.90;;;;;;4914769;29;20028;-92
2024/03/06 10:05:23;;;;;;;31.67;21.88;;;9.20;99.90;;;;;;4913932;29;20028;-92
2024/03/06 10:07:51;;;;;;;33.15;21.58;;;9.30;99.90;;;;;;4916358;29;20429;-92
2024/03/06 10:10:17;;;;;;;38.17;20.25;;;9.30;99.90;;;;;;4918624;29;20036;-92
2024/03/06 10:12:44;;;;;;;28.40;21.40;;;9.90;99.90;;;;;;4917659;29;20024;-91
2024/03/06 10:15:12;;;;;;;32.08;22.05;;;9.40;99.90;;;;;;4920627;29;20033;-91
2024/03/06 10:17:38;;;;;;;29.60;20.85;;;9.40;99.90;;;;;;4922946;29;20109;-91
2024/03/06 10:20:19;;;;;;;34.33;19.77;;;9.40;99.90;;;;;;4924756;29;20056;-92
2024/03/06 10:22:52;;;;;;;30.25;20.50;;;9.50;99.90;;;;;;4911598;29;20036;-92
2024/03/06 10:25:21;;;;;;;32.33;20.92;;;9.50;99.90;;;;;;4924319;29;20028;-91
2024/03/06 10:28:08;;;;;;;30.80;20.70;;;9.50;99.90;;;;;;4923798;29;20024;-92
2024/03/06 10:30:35;;;;;;;26.90;21.77;;;9.50;99.90;;;;;;4921846;29;20020;-91
2024/03/06 10:33:14;;;;;;;40.60;26.50;;;10.40;99.90;;;;;;4916455;29;20058;-86
2024/03/06 10:35:41;;;;;;;47.55;31.50;;;9.60;99.90;;;;;;4917661;29;20032;-91
2024/03/06 10:38:08;;;;;;;39.67;30.58;;;10.00;99.90;;;;;;4915160;29;20480;-86
2024/03/06 10:40:41;;;;;;;41.78;30.73;;;9.80;99.90;;;;;;4944157;23;20048;-87
2024/03/06 10:43:08;;;;;;;39.53;29.38;;;10.00;99.90;;;;;;4902935;29;20040;-85
2024/03/06 10:46:00;;;;;;;41.10;28.70;;;10.00;99.90;;;;;;4912751;29;20056;-89
2024/03/06 10:48:28;;;;;;;39.78;29.05;;;10.10;99.90;;;;;;4918722;29;20346;-85
2024/03/06 10:50:59;;;;;;;43.15;28.85;;;10.10;99.90;;;;;;4918820;29;20472;-88
2024/03/06 10:53:26;;;;;;;44.85;31.23;;;10.10;99.90;;;;;;4921485;29;20052;-94
2024/03/06 10:55:53;;;;;;;40.30;28.42;;;10.20;99.90;;;;;;4924980;29;20040;-90
2024/03/06 10:58:19;;;;;;;34.13;25.73;;;10.10;99.90;;;;;;4940907;29;20030;-93
2024/03/06 11:00:47;;;;;;;39.20;25.75;;;10.10;99.90;;;;;;4916675;29;20395;-89
2024/03/06 11:03:13;;;;;;;38.90;26.25;;;10.10;99.90;;;;;;4864157;29;20486;-90
2024/03/06 11:05:45;;;;;;;39.33;28.42;;;10.20;99.90;;;;;;4851933;29;20042;-89
2024/03/06 11:08:12;;;;;;;42.35;27.90;;;10.20;99.90;;;;;;4866036;29;20050;-90
2024/03/06 11:10:39;;;;;;;40.83;28.52;;;10.20;99.90;;;;;;4856490;29;20158;-88
2024/03/06 11:13:20;;;;;;;35.42;25.88;;;10.20;99.90;;;;;;4850683;29;20566;-91
2024/03/06 11:15:47;;;;;;;34.00;25.48;;;10.20;99.90;;;;;;4855252;29;20034;-92
2024/03/06 11:18:33;;;;;;;36.22;26.27;;;10.20;99.90;;;;;;4849653;29;20038;-91
2024/03/06 11:21:08;;;;;;;34.17;25.02;;;10.20;99.90;;;;;;4851670;29;20038;-92
2024/03/06 11:23:34;;;;;;;35.85;25.08;;;10.30;99.90;;;;;;4849229;29;20367;-93
2024/03/06 11:26:03;;;;;;;34.90;24.75;;;10.40;99.90;;;;;;4847818;29;20044;-93
2024/03/06 11:28:34;;;;;;;33.03;26.23;;;10.40;99.90;;;;;;4831661;29;20038;-92
2024/03/06 11:31:09;;;;;;;32.13;24.52;;;10.40;99.90;;;;;;4836366;29;20045;-93
2024/03/06 11:33:43;;;;;;;33.10;25.08;;;10.50;99.90;;;;;;4845236;29;20042;-92
2024/03/06 11:36:20;;;;;;;29.67;23.40;;;10.50;99.90;;;;;;4837728;29;20133;-93
2024/03/06 11:39:06;;;;;;;33.40;24.23;;;10.60;99.90;;;;;;4860666;29;20040;-93
2024/03/06 11:41:35;;;;;;;39.33;25.95;;;10.70;99.90;;;;;;4845459;29;20499;-94
2024/03/06 11:44:01;;;;;;;39.58;26.45;;;10.80;99.90;;;;;;4846621;29;20038;-92
2024/03/06 11:46:48;;;;;;;34.85;24.48;;;10.90;99.90;;;;;;4845777;29;20026;-91
2024/03/06 11:49:24;;;;;;;39.85;26.63;;;11.00;99.90;;;;;;4845403;29;20026;-90
2024/03/06 11:51:50;;;;;;;39.67;26.40;;;11.00;99.90;;;;;;4843469;29;20030;-89
2024/03/06 11:54:17;;;;;;;39.45;27.88;;;11.10;99.90;;;;;;4844009;29;20038;-89
2024/03/06 11:56:46;;;;;;;43.42;29.48;;;11.10;99.90;;;;;;4855267;29;20483;-88
2024/03/06 11:59:12;;;;;;;39.60;27.70;;;11.10;99.90;;;;;;4861500;29;20101;-86
2024/03/06 12:01:38;;;;;;;42.60;28.88;;;11.10;99.90;;;;;;4846901;29;20079;-87
2024/03/06 12:04:04;;;;;;;54.78;35.45;;;11.00;99.90;;;;;;4843540;29;20044;-87
2024/03/06 12:06:32;;;;;;;57.40;36.33;;;11.10;99.90;;;;;;4842099;29;20087;-88
2024/03/06 12:08:58;;;;;;;61.22;38.25;;;11.10;99.90;;;;;;4843497;29;20034;-88
2024/03/06 12:11:25;;;;;;;53.53;35.22;;;11.10;99.90;;;;;;4840418;29;20552;-87
2024/03/06 12:13:51;;;;;;;47.75;33.33;;;11.10;99.90;;;;;;4843190;29;20037;-87
2024/03/06 12:16:17;;;;;;;46.72;32.17;;;11.20;99.90;;;;;;4842053;29;20041;-87
2024/03/06 12:18:43;;;;;;;30.80;23.73;;;11.20;99.90;;;;;;4841107;29;20041;-84
2024/03/06 12:21:10;;;;;;;33.42;24.33;;;11.20;99.90;;;;;;4841115;29;20494;-86
2024/03/06 12:23:36;;;;;;;33.47;25.08;;;11.30;99.90;;;;;;4842121;29;20061;-84
2024/03/06 12:26:10;;;;;;;45.60;29.10;;;11.30;99.90;;;;;;4840412;29;20073;-85
2024/03/06 12:28:37;;;;;;;41.22;29.70;;;11.40;99.90;;;;;;4840970;29;20037;-85
2024/03/06 12:31:04;;;;;;;43.22;30.48;;;11.40;99.90;;;;;;4840938;29;20030;-87
2024/03/06 12:33:30;;;;;;;40.75;31.13;;;11.60;99.90;;;;;;4841036;29;20038;-87